createdAt,value
2023-03-02T00:00:41.077Z,63.88
2023-03-02T00:03:07.697Z,64.84
2023-03-02T00:05:35.266Z,64.94
2023-03-02T00:08:03.185Z,64.00
2023-03-02T00:10:29.953Z,64.40
2023-03-02T00:12:56.407Z,64.46
2023-03-02T00:15:23.554Z,64.10
2023-03-02T00:17:49.938Z,64.54
2023-03-02T00:20:16.749Z,64.88
2023-03-02T00:22:45.171Z,64.23
2023-03-02T00:25:13.550Z,64.43
2023-03-02T00:27:40.363Z,64.53
2023-03-02T00:30:14.660Z,64.04
2023-03-02T00:32:41.006Z,64.59
2023-03-02T00:35:07.956Z,64.69
2023-03-02T00:37:37.959Z,64.01
2023-03-02T00:40:09.684Z,64.02
2023-03-02T00:42:37.375Z,64.38
2023-03-02T00:45:07.284Z,64.87
2023-03-02T00:47:35.422Z,64.18
2023-03-02T00:50:02.754Z,64.49
2023-03-02T00:52:30.482Z,65.27
2023-03-02T00:54:56.883Z,65.20
2023-03-02T00:57:23.678Z,65.00
2023-03-02T00:59:50.375Z,64.49
2023-03-02T01:02:23.411Z,64.65
2023-03-02T01:04:53.035Z,64.24
2023-03-02T01:07:21.302Z,64.95
2023-03-02T01:09:50.619Z,64.54
2023-03-02T01:12:17.370Z,64.53
2023-03-02T01:14:47.126Z,64.77
2023-03-02T01:17:14.318Z,65.60
2023-03-02T01:19:42.042Z,64.55
2023-03-02T01:22:09.116Z,65.66
2023-03-02T01:24:35.486Z,64.89
2023-03-02T01:27:01.854Z,65.68
2023-03-02T01:29:28.282Z,64.85
2023-03-02T01:31:54.879Z,65.43
2023-03-02T01:34:21.416Z,65.77
2023-03-02T01:36:47.796Z,64.80
2023-03-02T01:39:17.300Z,65.40
2023-03-02T01:41:45.141Z,65.12
2023-03-02T01:44:36.830Z,65.85
2023-03-02T01:47:13.693Z,65.75
2023-03-02T01:49:58.764Z,65.11
2023-03-02T01:52:29.144Z,65.44
2023-03-02T01:54:59.258Z,65.11
2023-03-02T01:57:32.409Z,65.50
2023-03-02T02:00:08.444Z,66.29
2023-03-02T02:02:41.868Z,66.12
2023-03-02T02:05:10.947Z,65.13
2023-03-02T02:07:37.573Z,66.08
2023-03-02T02:10:05.249Z,66.11
2023-03-02T02:12:32.106Z,66.55
2023-03-02T02:15:00.742Z,66.24
2023-03-02T02:17:29.432Z,66.00
2023-03-02T02:20:19.435Z,66.25
2023-03-02T02:22:52.538Z,66.62
2023-03-02T02:25:37.003Z,66.34
2023-03-02T02:28:10.001Z,66.19
2023-03-02T02:30:39.332Z,66.51
2023-03-02T02:33:07.246Z,66.36
2023-03-02T02:35:38.408Z,66.26
2023-03-02T02:38:07.828Z,65.62
2023-03-02T02:40:55.281Z,66.20
2023-03-02T02:43:27.826Z,65.52
2023-03-02T02:45:57.234Z,66.16
2023-03-02T02:48:30.848Z,66.07
2023-03-02T02:51:03.074Z,66.75
2023-03-02T02:53:44.393Z,66.87
2023-03-02T02:56:12.902Z,66.01
2023-03-02T02:58:47.225Z,66.76
2023-03-02T03:01:16.213Z,67.18
2023-03-02T03:03:50.098Z,66.19
2023-03-02T03:06:25.671Z,67.07
2023-03-02T03:08:56.923Z,66.16
2023-03-02T03:11:33.617Z,65.89
2023-03-02T03:14:23.156Z,65.76
2023-03-02T03:16:51.833Z,65.94
2023-03-02T03:19:22.842Z,66.35
2023-03-02T03:21:52.849Z,66.46
2023-03-02T03:24:20.893Z,65.76
2023-03-02T03:26:48.459Z,66.85
2023-03-02T03:29:18.327Z,66.05
2023-03-02T03:31:46.966Z,66.69
2023-03-02T03:34:14.220Z,66.50
2023-03-02T03:36:43.167Z,66.75
2023-03-02T03:39:11.532Z,65.71
2023-03-02T03:41:39.821Z,66.63
2023-03-02T03:44:07.361Z,66.46
2023-03-02T03:46:35.826Z,65.96
2023-03-02T03:49:03.343Z,66.03
2023-03-02T03:51:35.043Z,66.14
2023-03-02T03:54:04.051Z,66.62
2023-03-02T03:56:42.576Z,66.81
2023-03-02T03:59:10.685Z,66.93
2023-03-02T04:01:45.165Z,66.72
2023-03-02T04:04:20.083Z,66.70
2023-03-02T04:06:46.920Z,66.45
2023-03-02T04:09:15.288Z,67.23
2023-03-02T04:11:43.545Z,67.19
2023-03-02T04:14:11.215Z,66.23
2023-03-02T04:16:38.527Z,66.73
2023-03-02T04:19:09.479Z,66.78
2023-03-02T04:21:39.669Z,66.44
2023-03-02T04:24:07.281Z,66.67
2023-03-02T04:26:34.574Z,66.29
2023-03-02T04:29:01.838Z,66.78
2023-03-02T04:31:28.411Z,65.63
2023-03-02T04:33:55.022Z,66.22
2023-03-02T04:36:21.581Z,65.92
2023-03-02T04:38:49.558Z,66.85
2023-03-02T04:41:16.454Z,66.16
2023-03-02T04:43:42.955Z,67.05
2023-03-02T04:46:17.974Z,67.14
2023-03-02T04:48:44.423Z,65.95
2023-03-02T04:51:38.918Z,66.60
2023-03-02T04:54:14.450Z,66.56
2023-03-02T04:56:40.818Z,67.23
2023-03-02T04:59:07.194Z,66.78
2023-03-02T05:01:33.596Z,66.04
2023-03-02T05:04:02.739Z,66.56
2023-03-02T05:06:29.328Z,66.17
2023-03-02T05:08:59.644Z,66.69
2023-03-02T05:11:26.013Z,66.78
2023-03-02T05:13:56.017Z,67.44
2023-03-02T05:16:23.630Z,67.03
2023-03-02T05:18:50.018Z,67.12
2023-03-02T05:21:20.849Z,66.86
2023-03-02T05:23:47.642Z,67.22
2023-03-02T05:26:14.296Z,67.66
2023-03-02T05:28:41.360Z,67.69
2023-03-02T05:31:07.943Z,67.60
2023-03-02T05:33:34.390Z,67.18
2023-03-02T05:36:01.115Z,67.51
2023-03-02T05:38:27.855Z,67.15
2023-03-02T05:40:54.321Z,67.29
2023-03-02T05:43:22.056Z,67.62
2023-03-02T05:45:48.419Z,67.14
2023-03-02T05:48:15.419Z,68.02
2023-03-02T05:50:42.030Z,66.97
2023-03-02T05:53:08.862Z,68.05
2023-03-02T05:55:36.949Z,67.31
2023-03-02T05:58:06.657Z,67.34
2023-03-02T06:00:33.082Z,68.00
2023-03-02T06:02:59.469Z,67.82
2023-03-02T06:05:25.876Z,67.98
2023-03-02T06:07:52.234Z,67.82
2023-03-02T06:10:18.715Z,68.53
2023-03-02T06:12:45.054Z,68.08
2023-03-02T06:15:11.641Z,68.70
2023-03-02T06:17:38.303Z,68.51
2023-03-02T06:20:10.782Z,67.38
2023-03-02T06:22:42.551Z,67.59
2023-03-02T06:25:11.369Z,68.20
2023-03-02T06:27:39.241Z,68.43
2023-03-02T06:30:07.862Z,68.30
2023-03-02T06:32:35.408Z,68.93
2023-03-02T06:35:03.034Z,68.87
2023-03-02T06:37:30.024Z,68.69
2023-03-02T06:39:57.711Z,68.69
2023-03-02T06:42:25.362Z,68.52
2023-03-02T06:44:52.474Z,69.15
2023-03-02T06:47:18.853Z,68.64
2023-03-02T06:49:45.380Z,68.79
2023-03-02T06:52:13.494Z,68.74
2023-03-02T06:54:40.649Z,68.56
2023-03-02T06:57:07.636Z,68.31
2023-03-02T06:59:34.628Z,68.36
2023-03-02T07:02:01.097Z,68.54
2023-03-02T07:04:30.694Z,68.20
2023-03-02T07:06:57.149Z,68.95
2023-03-02T07:09:23.813Z,68.75
2023-03-02T07:11:50.501Z,68.48
2023-03-02T07:14:16.865Z,67.97
2023-03-02T07:16:43.308Z,68.54
2023-03-02T07:19:13.977Z,68.63
2023-03-02T07:21:41.076Z,68.29
2023-03-02T07:24:07.562Z,67.96
2023-03-02T07:26:34.015Z,68.72
2023-03-02T07:29:00.867Z,68.24
2023-03-02T07:31:28.124Z,68.00
2023-03-02T07:33:54.564Z,68.03
2023-03-02T07:36:20.978Z,67.59
2023-03-02T07:38:48.542Z,68.34
2023-03-02T07:41:16.671Z,68.63
2023-03-02T07:43:43.099Z,67.52
2023-03-02T07:46:09.630Z,67.73
2023-03-02T07:48:36.694Z,67.56
2023-03-02T07:51:05.754Z,68.53
2023-03-02T07:53:32.478Z,67.91
2023-03-02T07:56:00.764Z,67.67
2023-03-02T07:58:27.641Z,67.83
2023-03-02T08:00:54.026Z,68.57
2023-03-02T08:03:20.405Z,68.55
2023-03-02T08:05:46.828Z,68.22
2023-03-02T08:08:13.186Z,67.59
2023-03-02T08:10:39.558Z,67.43
2023-03-02T08:13:05.952Z,67.43
2023-03-02T08:15:35.440Z,68.00
2023-03-02T08:18:01.912Z,67.74
2023-03-02T08:20:28.383Z,68.02
2023-03-02T08:22:55.027Z,67.82
2023-03-02T08:25:21.426Z,67.71
2023-03-02T08:27:48.017Z,67.23
2023-03-02T08:30:14.585Z,68.28
2023-03-02T08:32:41.171Z,68.42
2023-03-02T08:35:08.106Z,67.44
2023-03-02T08:37:34.645Z,67.97
2023-03-02T08:40:01.286Z,67.83
2023-03-02T08:42:27.810Z,67.26
2023-03-02T08:44:54.224Z,67.39
2023-03-02T08:47:20.622Z,68.34
2023-03-02T08:49:48.326Z,68.05
2023-03-02T08:52:15.251Z,68.09
2023-03-02T08:54:42.017Z,67.93
2023-03-02T08:57:11.433Z,67.95
2023-03-02T08:59:38.034Z,67.96
2023-03-02T09:02:04.417Z,68.31
2023-03-02T09:04:30.918Z,67.12
2023-03-02T09:06:57.342Z,67.95
2023-03-02T09:09:23.710Z,67.69
2023-03-02T09:11:50.077Z,67.20
2023-03-02T09:14:16.541Z,67.86
2023-03-02T09:16:43.014Z,67.00
2023-03-02T09:19:11.889Z,67.06
2023-03-02T09:21:38.285Z,66.55
2023-03-02T09:24:05.175Z,66.77
2023-03-02T09:26:31.555Z,67.47
2023-03-02T09:28:57.925Z,67.22
2023-03-02T09:31:24.437Z,66.55
2023-03-02T09:33:50.834Z,67.09
2023-03-02T09:36:22.102Z,66.42
2023-03-02T09:38:48.526Z,67.44
2023-03-02T09:41:31.748Z,66.80
2023-03-02T09:44:26.782Z,67.22
2023-03-02T09:47:02.337Z,66.91
2023-03-02T09:49:55.109Z,67.25
2023-03-02T09:52:37.075Z,66.20
2023-03-02T09:55:26.061Z,66.87
2023-03-02T09:57:54.779Z,66.83
2023-03-02T10:00:29.231Z,66.87
2023-03-02T10:03:14.925Z,65.85
2023-03-02T10:05:47.043Z,66.73
2023-03-02T10:08:16.121Z,66.06
2023-03-02T10:10:53.828Z,67.05
2023-03-02T10:13:42.253Z,66.46
2023-03-02T10:16:29.281Z,66.32
2023-03-02T10:19:08.302Z,67.21
2023-03-02T10:21:42.859Z,66.26
2023-03-02T10:24:19.466Z,66.90
2023-03-02T10:26:50.137Z,66.34
2023-03-02T10:29:35.110Z,66.23
2023-03-02T10:32:20.072Z,66.52
2023-03-02T10:34:48.190Z,67.31
2023-03-02T10:37:27.781Z,67.02
2023-03-02T10:39:55.373Z,66.99
2023-03-02T10:42:30.817Z,67.50
2023-03-02T10:45:08.021Z,67.72
2023-03-02T10:47:37.350Z,67.59
2023-03-02T10:50:03.810Z,66.85
2023-03-02T10:52:34.489Z,66.69
2023-03-02T10:55:16.759Z,66.82
2023-03-02T10:57:45.439Z,67.61
2023-03-02T11:00:21.575Z,67.13
2023-03-02T11:02:59.482Z,67.89
2023-03-02T11:05:39.103Z,67.99
2023-03-02T11:08:10.166Z,67.83
2023-03-02T11:10:40.031Z,67.36
2023-03-02T11:13:18.524Z,67.89
2023-03-02T11:15:48.362Z,67.60
2023-03-02T11:18:24.055Z,68.13
2023-03-02T11:20:54.459Z,67.66
2023-03-02T11:23:42.473Z,67.51
2023-03-02T11:26:24.696Z,67.91
2023-03-02T11:28:59.266Z,67.88
2023-03-02T11:31:37.991Z,67.97
2023-03-02T11:34:27.903Z,68.34
2023-03-02T11:37:32.012Z,68.12
2023-03-02T11:40:05.260Z,67.89
2023-03-02T11:42:36.465Z,67.57
2023-03-02T11:45:31.348Z,67.56
2023-03-02T11:48:17.615Z,67.69
2023-03-02T11:50:54.730Z,68.03
2023-03-02T11:53:23.360Z,68.04
2023-03-02T11:55:50.626Z,68.17
2023-03-02T11:58:20.812Z,67.52
2023-03-02T12:00:48.732Z,67.66
2023-03-02T12:03:15.008Z,68.36
2023-03-02T12:05:47.442Z,67.68
2023-03-02T12:08:19.823Z,68.29
2023-03-02T12:10:57.806Z,68.43
2023-03-02T12:13:30.025Z,67.92
2023-03-02T12:15:56.633Z,68.81
2023-03-02T12:18:22.953Z,68.33
2023-03-02T12:21:01.351Z,68.84
2023-03-02T12:23:28.956Z,68.79
2023-03-02T12:26:24.918Z,69.38
2023-03-02T12:29:11.417Z,69.31
2023-03-02T12:31:56.020Z,69.16
2023-03-02T12:34:42.460Z,69.27
2023-03-02T12:37:21.403Z,69.30
2023-03-02T12:39:53.615Z,68.54
2023-03-02T12:42:34.084Z,68.65
2023-03-02T12:45:10.140Z,68.42
2023-03-02T12:47:40.997Z,68.79
2023-03-02T12:50:19.489Z,68.18
2023-03-02T12:52:58.000Z,68.84
2023-03-02T12:55:24.930Z,68.31
2023-03-02T12:57:53.986Z,68.32
2023-03-02T13:00:24.226Z,68.83
2023-03-02T13:02:53.256Z,69.08
2023-03-02T13:05:28.434Z,68.02
2023-03-02T13:08:01.532Z,68.61
2023-03-02T13:10:48.601Z,68.78
2023-03-02T13:13:36.684Z,67.87
2023-03-02T13:16:06.320Z,68.65
2023-03-02T13:18:36.272Z,68.23
2023-03-02T13:21:05.153Z,67.90
2023-03-02T13:23:33.972Z,68.09
2023-03-02T13:26:05.316Z,67.76
2023-03-02T13:28:39.590Z,67.63
2023-03-02T13:31:22.303Z,67.90
2023-03-02T13:33:50.539Z,68.13
2023-03-02T13:36:26.331Z,67.95
2023-03-02T13:38:55.662Z,67.70
2023-03-02T13:41:24.008Z,67.78
2023-03-02T13:43:50.555Z,68.01
2023-03-02T13:46:16.884Z,68.58
2023-03-02T13:49:10.118Z,68.35
2023-03-02T13:51:40.846Z,68.17
2023-03-02T13:54:19.492Z,68.49
2023-03-02T13:56:45.870Z,68.24
2023-03-02T13:59:14.081Z,68.67
2023-03-02T14:01:44.081Z,68.11
2023-03-02T14:04:12.765Z,68.66
2023-03-02T14:06:39.163Z,68.54
2023-03-02T14:09:05.563Z,68.70
2023-03-02T14:11:37.098Z,68.46
2023-03-02T14:14:06.243Z,68.63
2023-03-02T14:16:35.966Z,68.03
2023-03-02T14:19:03.129Z,67.82
2023-03-02T14:21:29.801Z,68.14
2023-03-02T14:23:56.307Z,68.02
2023-03-02T14:26:36.391Z,68.36
2023-03-02T14:29:24.824Z,68.30
2023-03-02T14:31:51.624Z,68.32
2023-03-02T14:34:18.058Z,68.54
2023-03-02T14:36:48.098Z,68.71
2023-03-02T14:39:37.417Z,68.80
2023-03-02T14:42:11.368Z,68.26
2023-03-02T14:44:38.022Z,68.19
2023-03-02T14:47:04.585Z,68.66
2023-03-02T14:49:30.967Z,68.51
2023-03-02T14:52:24.799Z,68.99
2023-03-02T14:54:55.709Z,68.71
2023-03-02T14:57:27.470Z,68.05
2023-03-02T14:59:54.759Z,67.85
2023-03-02T15:02:26.085Z,68.50
2023-03-02T15:04:56.103Z,68.74
2023-03-02T15:07:24.577Z,68.50
2023-03-02T15:09:50.948Z,68.89
2023-03-02T15:12:17.418Z,69.05
2023-03-02T15:14:43.773Z,69.08
2023-03-02T15:17:10.315Z,69.28
2023-03-02T15:19:36.730Z,69.59
2023-03-02T15:22:04.453Z,69.03
2023-03-02T15:24:33.148Z,68.84
2023-03-02T15:27:00.036Z,69.05
2023-03-02T15:29:26.403Z,69.52
2023-03-02T15:31:52.897Z,69.58
2023-03-02T15:34:19.382Z,68.95
2023-03-02T15:36:45.761Z,69.02
2023-03-02T15:39:14.242Z,69.09
2023-03-02T15:41:42.241Z,68.37
2023-03-02T15:44:21.393Z,68.69
2023-03-02T15:46:53.734Z,68.68
2023-03-02T15:49:22.877Z,68.52
2023-03-02T15:51:51.470Z,68.87
2023-03-02T15:54:18.369Z,69.44
2023-03-02T15:56:45.119Z,68.33
2023-03-02T15:59:11.831Z,68.44
2023-03-02T16:01:38.231Z,68.32
2023-03-02T16:04:04.605Z,69.08
2023-03-02T16:06:31.286Z,68.78
2023-03-02T16:08:57.856Z,68.87
2023-03-02T16:11:24.266Z,69.08
2023-03-02T16:13:51.684Z,69.37
2023-03-02T16:16:19.834Z,68.97
2023-03-02T16:18:54.062Z,69.33
2023-03-02T16:21:21.075Z,70.10
2023-03-02T16:23:47.572Z,69.85
2023-03-02T16:26:19.669Z,69.65
2023-03-02T16:28:46.250Z,70.02
2023-03-02T16:31:18.461Z,69.50
2023-03-02T16:33:46.461Z,69.98
2023-03-02T16:36:13.650Z,69.89
2023-03-02T16:38:40.593Z,69.42
2023-03-02T16:41:16.365Z,69.91
2023-03-02T16:43:49.100Z,70.25
2023-03-02T16:46:16.518Z,69.66
2023-03-02T16:48:44.096Z,70.06
2023-03-02T16:51:10.788Z,69.47
2023-03-02T16:53:37.678Z,69.71
2023-03-02T16:56:04.244Z,69.62
2023-03-02T16:58:31.500Z,69.63
2023-03-02T17:00:58.032Z,70.43
2023-03-02T17:03:24.573Z,70.19
2023-03-02T17:05:50.999Z,70.33
2023-03-02T17:08:17.600Z,70.50
2023-03-02T17:10:44.579Z,70.63
2023-03-02T17:13:12.293Z,69.84
2023-03-02T17:15:39.659Z,70.74
2023-03-02T17:18:06.146Z,70.37
2023-03-02T17:20:32.771Z,70.26
2023-03-02T17:22:59.406Z,69.97
2023-03-02T17:25:26.400Z,70.72
2023-03-02T17:27:52.834Z,70.73
2023-03-02T17:30:20.055Z,70.16
2023-03-02T17:32:47.001Z,70.40
2023-03-02T17:35:14.154Z,70.18
2023-03-02T17:37:40.566Z,71.00
2023-03-02T17:40:08.358Z,70.23
2023-03-02T17:42:34.732Z,71.03
2023-03-02T17:45:01.085Z,69.88
2023-03-02T17:47:27.633Z,70.40
2023-03-02T17:49:56.047Z,70.47
2023-03-02T17:52:22.438Z,71.08
2023-03-02T17:54:48.976Z,70.39
2023-03-02T17:57:21.692Z,70.15
2023-03-02T17:59:51.740Z,71.10
2023-03-02T18:02:18.839Z,70.37
2023-03-02T18:04:45.628Z,70.72
2023-03-02T18:07:12.897Z,70.58
2023-03-02T18:09:39.704Z,69.99
2023-03-02T18:12:07.467Z,70.29
2023-03-02T18:14:34.478Z,70.27
2023-03-02T18:17:02.005Z,70.74
2023-03-02T18:19:28.412Z,70.44
2023-03-02T18:21:54.779Z,70.11
2023-03-02T18:24:21.128Z,70.51
2023-03-02T18:26:47.474Z,70.55
2023-03-02T18:29:13.902Z,69.98
2023-03-02T18:31:40.395Z,70.18
2023-03-02T18:34:06.894Z,70.83
2023-03-02T18:36:33.502Z,70.45
2023-03-02T18:38:59.938Z,70.26
2023-03-02T18:41:26.365Z,70.15
2023-03-02T18:43:53.012Z,70.81
2023-03-02T18:46:22.608Z,70.10
2023-03-02T18:48:50.495Z,70.52
2023-03-02T18:51:21.360Z,69.92
2023-03-02T18:53:48.292Z,70.06
2023-03-02T18:56:15.238Z,70.43
2023-03-02T18:58:41.896Z,70.00
2023-03-02T19:01:08.670Z,69.50
2023-03-02T19:03:36.924Z,69.69
2023-03-02T19:06:03.890Z,70.23
2023-03-02T19:08:30.726Z,69.78
2023-03-02T19:10:57.267Z,70.67
2023-03-02T19:13:23.990Z,70.57
2023-03-02T19:15:53.637Z,70.72
2023-03-02T19:18:23.058Z,69.82
2023-03-02T19:20:51.540Z,69.80
2023-03-02T19:23:18.192Z,70.63
2023-03-02T19:25:44.876Z,70.03
2023-03-02T19:28:11.339Z,71.05
2023-03-02T19:30:39.927Z,70.66
2023-03-02T19:33:07.303Z,70.39
2023-03-02T19:35:34.205Z,70.95
2023-03-02T19:38:02.154Z,70.35
2023-03-02T19:40:30.176Z,70.85
2023-03-02T19:42:57.014Z,70.55
2023-03-02T19:45:28.501Z,70.44
2023-03-02T19:47:57.695Z,70.18
2023-03-02T19:50:25.607Z,70.25
2023-03-02T19:52:54.599Z,71.14
2023-03-02T19:55:22.141Z,70.59
2023-03-02T19:57:56.316Z,70.47
2023-03-02T20:00:24.108Z,70.49
2023-03-02T20:02:50.851Z,70.63
2023-03-02T20:05:18.022Z,70.42
2023-03-02T20:07:44.660Z,70.66
2023-03-02T20:10:12.907Z,71.65
2023-03-02T20:12:39.288Z,71.19
2023-03-02T20:15:06.546Z,70.40
2023-03-02T20:17:33.714Z,71.23
2023-03-02T20:20:01.150Z,70.89
2023-03-02T20:22:27.523Z,71.25
2023-03-02T20:24:53.893Z,70.53
2023-03-02T20:27:21.097Z,71.63
2023-03-02T20:29:48.424Z,70.77
2023-03-02T20:32:14.981Z,70.73
2023-03-02T20:34:43.348Z,70.39
2023-03-02T20:37:11.943Z,70.71
2023-03-02T20:39:39.698Z,70.37
2023-03-02T20:42:07.237Z,70.56
2023-03-02T20:44:34.624Z,70.68
2023-03-02T20:47:06.105Z,70.66
2023-03-02T20:49:32.598Z,70.49
2023-03-02T20:51:59.823Z,71.53
2023-03-02T20:54:33.077Z,71.17
2023-03-02T20:56:59.967Z,70.31
2023-03-02T20:59:26.941Z,71.08
2023-03-02T21:01:53.648Z,70.51
2023-03-02T21:04:20.688Z,71.22
2023-03-02T21:06:47.774Z,70.38
2023-03-02T21:09:14.968Z,70.51
2023-03-02T21:11:41.394Z,70.44
2023-03-02T21:14:08.027Z,70.48
2023-03-02T21:16:38.864Z,71.28
2023-03-02T21:19:08.543Z,71.48
2023-03-02T21:21:41.436Z,70.31
2023-03-02T21:24:11.456Z,71.11
2023-03-02T21:26:38.846Z,70.74
2023-03-02T21:29:05.441Z,70.19
2023-03-02T21:31:32.694Z,70.98
2023-03-02T21:34:00.030Z,70.32
2023-03-02T21:36:27.223Z,70.44
2023-03-02T21:38:54.299Z,70.42
2023-03-02T21:41:21.158Z,70.89
2023-03-02T21:43:48.332Z,70.63
2023-03-02T21:46:18.200Z,70.25
2023-03-02T21:48:44.912Z,70.96
2023-03-02T21:51:12.774Z,70.24
2023-03-02T21:53:39.402Z,70.64
2023-03-02T21:56:06.302Z,69.91
2023-03-02T21:58:32.997Z,71.23
2023-03-02T22:00:59.448Z,70.81
2023-03-02T22:03:26.188Z,71.29
2023-03-02T22:05:52.654Z,71.12
2023-03-02T22:08:20.311Z,71.09
2023-03-02T22:10:49.357Z,70.65
2023-03-02T22:13:26.166Z,70.43
2023-03-02T22:16:04.527Z,70.93
2023-03-02T22:18:31.259Z,70.60
2023-03-02T22:20:57.842Z,71.01
2023-03-02T22:23:26.918Z,71.29
2023-03-02T22:26:00.864Z,71.01
2023-03-02T22:28:28.398Z,70.42
2023-03-02T22:31:00.013Z,71.10
2023-03-02T22:33:28.924Z,70.78
2023-03-02T22:36:11.797Z,70.73
2023-03-02T22:38:38.164Z,70.46
2023-03-02T22:41:06.428Z,70.82
2023-03-02T22:43:34.861Z,70.67
2023-03-02T22:46:15.896Z,70.98
2023-03-02T22:48:44.704Z,70.65
2023-03-02T22:51:14.092Z,70.50
2023-03-02T22:53:52.825Z,71.05
2023-03-02T22:56:35.389Z,70.87
2023-03-02T22:59:22.599Z,70.51
2023-03-02T23:01:49.405Z,71.07
2023-03-02T23:04:29.641Z,71.00
2023-03-02T23:07:00.927Z,71.50
2023-03-02T23:09:32.733Z,70.96
2023-03-02T23:12:04.952Z,70.81
2023-03-02T23:15:17.503Z,70.76
2023-03-02T23:17:46.237Z,71.21
2023-03-02T23:20:14.900Z,71.83
2023-03-02T23:22:42.452Z,71.75
2023-03-02T23:25:09.360Z,71.56
2023-03-02T23:27:35.998Z,71.70
2023-03-02T23:30:03.674Z,71.76
2023-03-02T23:32:30.165Z,71.08
2023-03-02T23:34:56.766Z,71.61
2023-03-02T23:37:23.129Z,71.51
2023-03-02T23:39:49.494Z,71.84
2023-03-02T23:42:15.826Z,71.72
2023-03-02T23:44:42.189Z,71.51
2023-03-02T23:47:08.560Z,72.08
2023-03-02T23:49:34.964Z,71.98
2023-03-02T23:52:01.430Z,71.61
2023-03-02T23:54:27.908Z,72.26
2023-03-02T23:56:54.264Z,72.14
2023-03-02T23:59:20.640Z,72.28
